createdAt,value
2019-03-08T00:02:17.761Z,3.90
2019-03-08T00:04:48.154Z,3.42
2019-03-08T00:07:19.271Z,4.20
2019-03-08T00:09:49.638Z,3.92
2019-03-08T00:12:19.986Z,4.75
2019-03-08T00:14:50.435Z,4.33
2019-03-08T00:17:20.864Z,4.58
2019-03-08T00:19:51.359Z,4.20
2019-03-08T00:22:21.756Z,5.12
2019-03-08T00:24:52.260Z,3.98
2019-03-08T00:27:22.647Z,4.17
2019-03-08T00:29:53.148Z,4.70
2019-03-08T00:32:23.531Z,4.92
2019-03-08T00:34:55.029Z,4.70
2019-03-08T00:37:25.424Z,4.62
2019-03-08T00:39:55.915Z,4.03
2019-03-08T00:42:26.331Z,4.08
2019-03-08T00:44:56.808Z,4.60
2019-03-08T00:47:27.227Z,4.45
2019-03-08T00:50:01.326Z,5.03
2019-03-08T00:52:34.510Z,5.20
2019-03-08T00:55:05.448Z,4.40
2019-03-08T00:57:36.013Z,5.08
2019-03-08T01:00:10.229Z,4.62
2019-03-08T01:02:40.715Z,5.40
2019-03-08T01:05:11.964Z,5.08
2019-03-08T01:07:42.597Z,5.33
2019-03-08T01:10:15.267Z,5.00
2019-03-08T01:12:46.050Z,4.85
2019-03-08T01:15:17.547Z,4.47
2019-03-08T01:17:48.089Z,4.30
2019-03-08T01:20:20.575Z,4.87
2019-03-08T01:22:50.966Z,5.22
2019-03-08T01:25:21.609Z,6.20
2019-03-08T01:27:57.237Z,5.47
2019-03-08T01:30:27.799Z,5.97
2019-03-08T01:32:58.156Z,5.72
2019-03-08T01:35:28.680Z,6.08
2019-03-08T01:37:59.146Z,6.33
2019-03-08T01:40:29.606Z,6.53
2019-03-08T01:43:00.115Z,6.72
2019-03-08T01:45:30.714Z,6.53
2019-03-08T01:48:01.149Z,6.90
2019-03-08T01:50:32.665Z,7.20
2019-03-08T01:53:03.093Z,6.22
2019-03-08T01:55:33.577Z,5.97
2019-03-08T01:58:04.859Z,6.67
2019-03-08T02:00:35.372Z,6.75
2019-03-08T02:03:06.839Z,6.62
2019-03-08T02:05:37.303Z,7.03
2019-03-08T02:08:07.691Z,6.47
2019-03-08T02:10:38.208Z,6.03
2019-03-08T02:13:08.751Z,6.97
2019-03-08T02:15:39.276Z,7.87
2019-03-08T02:18:10.007Z,7.00
2019-03-08T02:20:40.424Z,7.00
2019-03-08T02:23:10.959Z,6.87
2019-03-08T02:25:41.661Z,6.83
2019-03-08T02:28:12.280Z,7.47
2019-03-08T02:30:42.681Z,7.08
2019-03-08T02:33:13.070Z,7.42
2019-03-08T02:35:43.580Z,7.30
2019-03-08T02:38:14.974Z,8.45
2019-03-08T02:40:45.623Z,6.45
2019-03-08T02:43:17.714Z,6.70
2019-03-08T02:45:48.126Z,7.72
2019-03-08T02:48:18.688Z,6.75
2019-03-08T02:50:49.422Z,6.83
2019-03-08T02:53:21.872Z,7.10
2019-03-08T02:55:52.352Z,7.00
2019-03-08T02:58:23.843Z,6.78
2019-03-08T03:00:54.452Z,7.35
2019-03-08T03:03:24.875Z,7.55
2019-03-08T03:05:55.367Z,5.92
2019-03-08T03:08:25.772Z,6.50
2019-03-08T03:10:56.532Z,4.92
2019-03-08T03:13:27.036Z,6.35
2019-03-08T03:15:57.411Z,5.90
2019-03-08T03:18:27.847Z,5.67
2019-03-08T03:20:58.515Z,5.90
2019-03-08T03:23:28.847Z,6.35
2019-03-08T03:25:59.159Z,6.12
2019-03-08T03:28:29.562Z,6.35
2019-03-08T03:31:00.614Z,6.28
2019-03-08T03:33:31.035Z,6.67
2019-03-08T03:36:01.360Z,6.25
2019-03-08T03:38:31.715Z,6.58
2019-03-08T03:41:02.123Z,6.70
2019-03-08T03:43:32.811Z,6.65
2019-03-08T03:46:03.267Z,7.40
2019-03-08T03:48:33.675Z,6.33
2019-03-08T03:51:05.173Z,6.53
2019-03-08T03:53:36.259Z,7.58
2019-03-08T03:56:06.972Z,7.15
2019-03-08T03:58:37.447Z,6.33
2019-03-08T04:01:21.409Z,7.00
2019-03-08T04:03:51.906Z,6.28
2019-03-08T04:06:22.584Z,7.10
2019-03-08T04:08:52.858Z,6.53
2019-03-08T04:11:23.265Z,6.53
2019-03-08T04:13:54.752Z,6.42
2019-03-08T04:16:25.177Z,7.95
2019-03-08T04:18:55.949Z,6.78
2019-03-08T04:21:26.331Z,6.78
2019-03-08T04:23:57.098Z,6.65
2019-03-08T04:26:27.615Z,7.03
2019-03-08T04:28:58.021Z,6.78
2019-03-08T04:31:28.562Z,5.75
2019-03-08T04:33:58.908Z,6.33
2019-03-08T04:36:30.341Z,6.03
2019-03-08T04:39:00.834Z,7.25
2019-03-08T04:41:33.032Z,6.50
2019-03-08T04:44:03.532Z,6.67
2019-03-08T04:46:33.884Z,6.55
2019-03-08T04:49:04.346Z,6.17
2019-03-08T04:51:35.787Z,6.33
2019-03-08T04:54:06.898Z,5.70
2019-03-08T04:56:38.045Z,5.50
2019-03-08T04:59:08.479Z,6.03
2019-03-08T05:01:40.734Z,5.25
2019-03-08T05:04:11.250Z,5.50
2019-03-08T05:06:42.383Z,6.28
2019-03-08T05:09:12.820Z,6.47
2019-03-08T05:11:43.269Z,5.17
2019-03-08T05:14:13.628Z,6.20
2019-03-08T05:16:43.951Z,4.45
2019-03-08T05:19:14.299Z,4.80
2019-03-08T05:21:44.759Z,4.42
2019-03-08T05:24:15.193Z,4.17
2019-03-08T05:26:46.149Z,4.05
2019-03-08T05:29:16.488Z,5.22
2019-03-08T05:31:46.865Z,4.70
2019-03-08T05:34:19.220Z,4.92
2019-03-08T05:36:51.225Z,4.92
2019-03-08T05:39:21.878Z,5.00
2019-03-08T05:41:52.193Z,6.12
2019-03-08T05:44:23.679Z,5.15
2019-03-08T05:46:55.781Z,5.15
2019-03-08T05:49:26.173Z,4.50
2019-03-08T05:51:56.883Z,4.10
2019-03-08T05:54:27.170Z,3.37
2019-03-08T05:56:58.386Z,3.90
2019-03-08T05:59:29.026Z,4.28
2019-03-08T06:01:59.449Z,3.95
2019-03-08T06:04:30.459Z,4.75
2019-03-08T06:07:00.952Z,3.87
2019-03-08T06:09:31.296Z,4.22
2019-03-08T06:12:01.627Z,3.77
2019-03-08T06:14:32.309Z,3.70
2019-03-08T06:17:02.719Z,3.72
2019-03-08T06:19:34.719Z,3.98
2019-03-08T06:22:05.084Z,4.97
2019-03-08T06:24:36.143Z,4.80
2019-03-08T06:27:11.120Z,4.67
2019-03-08T06:29:42.520Z,4.67
2019-03-08T06:32:12.973Z,4.00
2019-03-08T06:34:43.432Z,4.35
2019-03-08T06:37:13.763Z,4.70
2019-03-08T06:39:44.525Z,5.40
2019-03-08T06:42:15.059Z,4.58
2019-03-08T06:44:45.517Z,4.75
2019-03-08T06:47:15.963Z,4.58
2019-03-08T06:49:46.332Z,5.28
2019-03-08T06:52:16.927Z,4.50
2019-03-08T06:54:47.307Z,5.03
2019-03-08T06:57:17.746Z,5.92
2019-03-08T07:00:02.982Z,5.55
2019-03-08T07:02:34.049Z,4.97
2019-03-08T07:05:04.728Z,4.90
2019-03-08T07:07:44.538Z,4.80
2019-03-08T07:10:14.984Z,5.17
2019-03-08T07:12:45.603Z,4.67
2019-03-08T07:15:16.507Z,4.60
2019-03-08T07:17:46.967Z,5.00
2019-03-08T07:20:34.935Z,4.70
2019-03-08T07:23:12.379Z,4.83
2019-03-08T07:26:00.810Z,4.95
2019-03-08T07:28:39.273Z,4.12
2019-03-08T07:31:37.865Z,4.55
2019-03-08T07:34:29.087Z,4.45
2019-03-08T07:37:14.000Z,4.30
2019-03-08T07:39:50.460Z,4.85
2019-03-08T07:42:40.386Z,4.25
2019-03-08T07:45:24.919Z,4.25
2019-03-08T07:48:17.279Z,4.00
2019-03-08T07:51:02.544Z,4.62
2019-03-08T07:53:48.229Z,5.12
2019-03-08T07:56:35.919Z,4.45
2019-03-08T07:59:18.306Z,4.80
2019-03-08T08:02:07.079Z,3.17
2019-03-08T08:04:44.808Z,3.65
2019-03-08T08:07:34.231Z,2.98
2019-03-08T08:10:14.550Z,3.85
2019-03-08T08:12:58.219Z,3.65
2019-03-08T08:15:50.676Z,4.12
2019-03-08T08:18:31.440Z,3.92
2019-03-08T08:21:29.847Z,4.70
2019-03-08T08:24:21.698Z,3.98
2019-03-08T08:26:58.368Z,4.30
2019-03-08T08:29:42.203Z,4.15
2019-03-08T08:32:34.621Z,4.05
2019-03-08T08:35:15.424Z,4.20
2019-03-08T08:38:11.320Z,3.80
2019-03-08T08:40:59.201Z,4.25
2019-03-08T08:43:37.842Z,4.17
2019-03-08T08:46:25.971Z,3.75
2019-03-08T08:49:09.676Z,3.85
2019-03-08T08:51:59.385Z,3.98
2019-03-08T08:54:36.951Z,3.40
2019-03-08T08:57:26.406Z,4.83
2019-03-08T09:00:24.073Z,3.33
2019-03-08T09:03:20.405Z,4.10
2019-03-08T09:06:09.839Z,3.60
2019-03-08T09:09:05.523Z,3.55
2019-03-08T09:11:48.531Z,4.03
2019-03-08T09:14:20.800Z,3.50
2019-03-08T09:17:28.124Z,3.70
2019-03-08T09:20:28.522Z,3.75
2019-03-08T09:23:29.810Z,4.10
2019-03-08T09:26:33.107Z,4.40
2019-03-08T09:29:19.044Z,3.98
2019-03-08T09:32:01.607Z,4.17
2019-03-08T09:35:08.971Z,3.95
2019-03-08T09:38:10.487Z,3.95
2019-03-08T09:40:54.003Z,3.42
2019-03-08T09:43:46.363Z,3.50
2019-03-08T09:46:37.164Z,3.95
2019-03-08T09:49:25.196Z,3.60
2019-03-08T09:52:01.283Z,3.87
2019-03-08T09:54:54.216Z,3.72
2019-03-08T09:57:52.176Z,3.17
2019-03-08T10:00:33.982Z,3.08
2019-03-08T10:03:29.937Z,3.22
2019-03-08T10:06:06.051Z,3.80
2019-03-08T10:08:49.075Z,3.50
2019-03-08T10:11:23.657Z,3.83
2019-03-08T10:14:18.887Z,3.67
2019-03-08T10:17:20.392Z,3.42
2019-03-08T10:20:01.400Z,3.02
2019-03-08T10:23:00.663Z,3.50
2019-03-08T10:25:45.612Z,3.92
2019-03-08T10:28:33.725Z,3.85
2019-03-08T10:31:21.985Z,4.12
2019-03-08T10:34:11.766Z,3.98
2019-03-08T10:37:00.923Z,3.92
2019-03-08T10:39:56.476Z,3.77
2019-03-08T10:42:42.547Z,3.87
2019-03-08T10:45:30.625Z,5.35
2019-03-08T10:48:07.037Z,4.20
2019-03-08T10:50:59.299Z,3.70
2019-03-08T10:53:45.639Z,4.58
2019-03-08T10:56:27.957Z,3.50
2019-03-08T10:59:23.495Z,4.50
2019-03-08T11:02:13.091Z,4.75
2019-03-08T11:05:15.022Z,6.20
2019-03-08T11:08:09.019Z,4.30
2019-03-08T11:11:11.023Z,3.77
2019-03-08T11:14:16.170Z,3.77
2019-03-08T11:17:04.427Z,3.58
2019-03-08T11:19:53.903Z,3.42
2019-03-08T11:22:37.300Z,2.50
2019-03-08T11:25:34.775Z,3.15
2019-03-08T11:28:22.563Z,3.20
2019-03-08T11:31:03.015Z,3.08
2019-03-08T11:33:41.060Z,3.08
2019-03-08T11:36:29.504Z,3.05
2019-03-08T11:39:07.400Z,3.15
2019-03-08T11:42:13.220Z,3.70
2019-03-08T11:44:52.424Z,3.42
2019-03-08T11:47:34.165Z,3.70
2019-03-08T11:50:22.489Z,3.60
2019-03-08T11:53:03.706Z,3.50
2019-03-08T11:55:50.804Z,3.87
2019-03-08T11:58:37.006Z,4.03
2019-03-08T12:01:24.035Z,2.83
2019-03-08T12:04:25.486Z,3.30
2019-03-08T12:07:03.737Z,3.90
2019-03-08T12:10:02.957Z,3.83
2019-03-08T12:12:55.899Z,4.22
2019-03-08T12:15:38.823Z,3.10
2019-03-08T12:18:31.114Z,3.70
2019-03-08T12:21:09.336Z,3.50
2019-03-08T12:23:58.801Z,3.95
2019-03-08T12:26:42.712Z,10.88
2019-03-08T12:29:34.124Z,3.35
2019-03-08T12:32:29.761Z,3.52
2019-03-08T12:35:19.278Z,3.08
2019-03-08T12:38:07.777Z,3.27
2019-03-08T12:41:00.279Z,8.00
2019-03-08T12:43:48.367Z,3.27
2019-03-08T12:46:40.614Z,2.77
2019-03-08T12:49:29.815Z,2.98
2019-03-08T12:52:11.370Z,3.08
2019-03-08T12:54:50.175Z,3.20
2019-03-08T12:57:48.706Z,2.72
2019-03-08T13:00:49.320Z,3.20
2019-03-08T13:03:36.424Z,2.80
2019-03-08T13:06:12.275Z,3.30
2019-03-08T13:09:09.271Z,2.90
2019-03-08T13:11:41.529Z,3.12
2019-03-08T13:14:28.047Z,3.00
2019-03-08T13:16:58.516Z,2.92
2019-03-08T13:19:28.886Z,3.08
2019-03-08T13:21:59.208Z,2.90
2019-03-08T13:24:35.998Z,3.02
2019-03-08T13:27:06.547Z,2.85
2019-03-08T13:29:36.924Z,2.55
2019-03-08T13:32:07.703Z,2.08
2019-03-08T13:34:38.175Z,2.70
2019-03-08T13:37:08.543Z,2.62
2019-03-08T13:39:38.837Z,2.33
2019-03-08T13:42:09.416Z,2.75
2019-03-08T13:44:39.787Z,2.98
2019-03-08T13:47:10.207Z,3.10
2019-03-08T13:49:40.531Z,2.85
2019-03-08T13:52:11.031Z,3.58
2019-03-08T13:54:41.572Z,2.72
2019-03-08T13:57:11.973Z,3.35
2019-03-08T13:59:43.385Z,2.60
2019-03-08T14:02:13.912Z,3.10
2019-03-08T14:04:44.231Z,3.52
2019-03-08T14:07:14.857Z,2.92
2019-03-08T14:09:46.448Z,2.40
2019-03-08T14:12:17.544Z,2.35
2019-03-08T14:14:47.884Z,2.45
2019-03-08T14:17:18.209Z,2.15
2019-03-08T14:19:48.524Z,2.50
2019-03-08T14:22:19.069Z,2.65
2019-03-08T14:24:49.530Z,2.10
2019-03-08T14:27:19.901Z,2.25
2019-03-08T14:29:50.394Z,2.60
2019-03-08T14:32:25.393Z,1.65
2019-03-08T14:34:55.054Z,2.20
2019-03-08T14:37:26.135Z,1.72
2019-03-08T14:39:59.420Z,2.33
2019-03-08T14:42:40.657Z,2.15
2019-03-08T14:45:29.512Z,2.30
2019-03-08T14:48:21.229Z,2.47
2019-03-08T14:50:51.660Z,2.90
2019-03-08T14:53:22.101Z,2.60
2019-03-08T14:55:55.198Z,2.87
2019-03-08T14:58:24.792Z,2.52
2019-03-08T15:01:02.108Z,2.87
2019-03-08T15:03:42.993Z,2.60
2019-03-08T15:06:05.614Z,2.52
2019-03-08T15:08:36.162Z,3.17
2019-03-08T15:11:07.734Z,3.35
2019-03-08T15:13:39.949Z,2.90
2019-03-08T15:16:10.589Z,2.70
2019-03-08T15:18:40.985Z,2.77
2019-03-08T15:21:11.408Z,2.55
2019-03-08T15:23:43.586Z,2.62
2019-03-08T15:26:14.310Z,2.72
2019-03-08T15:28:44.801Z,3.00
2019-03-08T15:31:19.461Z,2.42
2019-03-08T15:33:50.080Z,2.87
2019-03-08T15:36:22.498Z,3.20
2019-03-08T15:38:58.602Z,3.17
2019-03-08T15:41:26.447Z,3.08
2019-03-08T15:43:57.131Z,2.70
2019-03-08T15:46:27.528Z,3.05
2019-03-08T15:48:59.741Z,3.22
2019-03-08T15:51:30.241Z,2.90
2019-03-08T15:54:00.707Z,2.75
2019-03-08T15:56:31.149Z,5.75
2019-03-08T15:59:03.298Z,2.95
2019-03-08T16:01:33.712Z,3.02
2019-03-08T16:04:08.304Z,2.72
2019-03-08T16:06:39.947Z,3.37
2019-03-08T16:09:08.743Z,3.00
2019-03-08T16:11:39.786Z,3.45
2019-03-08T16:14:15.896Z,3.22
2019-03-08T16:16:46.905Z,3.33
2019-03-08T16:19:20.824Z,3.40
2019-03-08T16:21:50.661Z,3.15
2019-03-08T16:24:21.486Z,3.27
2019-03-08T16:26:51.967Z,3.35
2019-03-08T16:29:22.796Z,2.77
2019-03-08T16:32:07.407Z,3.27
2019-03-08T16:34:37.565Z,3.75
2019-03-08T16:37:19.671Z,3.62
2019-03-08T16:40:07.840Z,2.75
2019-03-08T16:42:58.787Z,3.55
2019-03-08T16:45:50.634Z,3.25
2019-03-08T16:48:44.053Z,2.60
2019-03-08T16:51:30.285Z,3.42
2019-03-08T16:54:16.145Z,4.05
2019-03-08T16:57:04.370Z,3.35
2019-03-08T16:59:43.478Z,2.92
2019-03-08T17:02:20.175Z,2.90
2019-03-08T17:05:03.384Z,3.00
2019-03-08T17:08:03.932Z,3.75
2019-03-08T17:10:51.943Z,3.15
2019-03-08T17:13:31.278Z,2.70
2019-03-08T17:16:14.089Z,2.87
2019-03-08T17:19:11.836Z,3.05
2019-03-08T17:21:58.293Z,2.83
2019-03-08T17:24:57.902Z,3.27
2019-03-08T17:27:47.764Z,3.42
2019-03-08T17:30:31.568Z,3.60
2019-03-08T17:33:20.781Z,2.98
2019-03-08T17:36:10.965Z,2.90
2019-03-08T17:38:55.011Z,3.30
2019-03-08T17:41:56.894Z,3.33
2019-03-08T17:45:01.957Z,2.62
2019-03-08T17:47:55.487Z,2.98
2019-03-08T17:50:35.936Z,3.15
2019-03-08T17:53:40.456Z,3.25
2019-03-08T17:56:28.959Z,3.20
2019-03-08T17:59:09.563Z,3.12
2019-03-08T18:01:52.721Z,2.90
2019-03-08T18:04:38.425Z,3.15
2019-03-08T18:07:16.756Z,2.95
2019-03-08T18:10:04.999Z,3.12
2019-03-08T18:12:54.598Z,2.98
2019-03-08T18:15:31.413Z,2.95
2019-03-08T18:18:16.464Z,2.83
2019-03-08T18:20:57.175Z,3.27
2019-03-08T18:23:49.767Z,3.65
2019-03-08T18:26:40.091Z,3.17
2019-03-08T18:29:33.943Z,3.12
2019-03-08T18:32:17.344Z,2.92
2019-03-08T18:34:57.450Z,3.75
2019-03-08T18:37:50.303Z,3.67
2019-03-08T18:40:28.130Z,3.52
2019-03-08T18:43:20.468Z,3.30
2019-03-08T18:46:08.476Z,3.50
2019-03-08T18:48:46.932Z,3.27
2019-03-08T18:51:36.641Z,3.70
2019-03-08T18:54:20.503Z,3.70
2019-03-08T18:57:01.535Z,4.35
2019-03-08T18:59:48.422Z,4.33
2019-03-08T19:02:34.427Z,3.67
2019-03-08T19:05:20.895Z,4.47
2019-03-08T19:08:00.436Z,3.12
2019-03-08T19:10:49.215Z,4.30
2019-03-08T19:13:34.872Z,4.55
2019-03-08T19:16:11.358Z,4.15
2019-03-08T19:19:04.352Z,3.98
2019-03-08T19:22:03.542Z,3.95
2019-03-08T19:24:45.170Z,4.10
2019-03-08T19:27:26.965Z,4.40
2019-03-08T19:30:08.162Z,4.03
2019-03-08T19:33:13.111Z,3.70
2019-03-08T19:36:08.717Z,4.45
2019-03-08T19:39:05.887Z,4.47
2019-03-08T19:41:59.995Z,4.25
2019-03-08T19:44:52.497Z,4.05
2019-03-08T19:47:48.676Z,4.03
2019-03-08T19:50:31.793Z,4.35
2019-03-08T19:53:31.244Z,4.30
2019-03-08T19:56:33.284Z,3.80
2019-03-08T19:59:24.490Z,3.72
2019-03-08T20:02:12.845Z,4.47
2019-03-08T20:05:08.235Z,4.15
2019-03-08T20:07:47.832Z,4.25
2019-03-08T20:10:37.964Z,3.98
2019-03-08T20:13:29.111Z,4.87
2019-03-08T20:16:18.547Z,4.47
2019-03-08T20:19:08.081Z,4.50
2019-03-08T20:21:47.739Z,4.80
2019-03-08T20:24:31.454Z,4.67
2019-03-08T20:27:28.880Z,5.20
2019-03-08T20:30:17.164Z,5.60
2019-03-08T20:33:08.328Z,5.10
2019-03-08T20:35:47.147Z,4.65
2019-03-08T20:38:35.861Z,4.53
2019-03-08T20:41:15.978Z,4.22
2019-03-08T20:43:52.593Z,3.60
2019-03-08T20:46:28.454Z,4.42
2019-03-08T20:48:59.022Z,3.77
2019-03-08T20:51:31.320Z,3.12
2019-03-08T20:54:02.885Z,2.87
2019-03-08T20:56:34.285Z,2.72
2019-03-08T20:59:04.744Z,2.35
2019-03-08T21:01:35.110Z,2.20
2019-03-08T21:04:07.351Z,2.12
2019-03-08T21:06:37.774Z,1.60
2019-03-08T21:09:09.388Z,1.12
2019-03-08T21:11:40.193Z,1.02
2019-03-08T21:14:11.620Z,1.57
2019-03-08T21:16:42.125Z,1.32
2019-03-08T21:19:14.270Z,1.52
2019-03-08T21:21:44.859Z,1.52
2019-03-08T21:24:15.352Z,1.42
2019-03-08T21:26:47.668Z,1.32
2019-03-08T21:29:18.060Z,1.47
2019-03-08T21:31:48.469Z,1.22
2019-03-08T21:34:18.947Z,1.75
2019-03-08T21:36:49.338Z,1.98
2019-03-08T21:39:21.303Z,1.80
2019-03-08T21:41:53.375Z,1.20
2019-03-08T21:44:25.261Z,1.75
2019-03-08T21:46:57.730Z,1.90
2019-03-08T21:49:28.162Z,2.87
2019-03-08T21:51:58.581Z,1.60
2019-03-08T21:54:32.287Z,2.47
2019-03-08T21:57:06.407Z,2.17
2019-03-08T21:59:39.802Z,2.37
2019-03-08T22:02:12.807Z,1.55
2019-03-08T22:04:46.865Z,2.65
2019-03-08T22:07:17.600Z,1.90
2019-03-08T22:10:09.900Z,2.10
2019-03-08T22:12:40.360Z,2.30
2019-03-08T22:15:11.276Z,2.70
2019-03-08T22:17:41.778Z,2.20
2019-03-08T22:20:12.348Z,2.08
2019-03-08T22:22:42.612Z,2.00
2019-03-08T22:25:13.242Z,2.80
2019-03-08T22:27:45.453Z,2.65
2019-03-08T22:30:16.433Z,2.50
2019-03-08T22:32:47.873Z,2.30
2019-03-08T22:35:18.264Z,2.95
2019-03-08T22:37:49.757Z,2.35
2019-03-08T22:40:20.250Z,2.00
2019-03-08T22:42:50.629Z,2.83
2019-03-08T22:45:21.036Z,2.60
2019-03-08T22:47:51.528Z,2.75
2019-03-08T22:50:22.280Z,2.98
2019-03-08T22:52:52.736Z,2.70
2019-03-08T22:55:23.047Z,2.37
2019-03-08T22:57:53.487Z,2.70
2019-03-08T23:00:50.296Z,2.75
2019-03-08T23:03:22.901Z,2.62
2019-03-08T23:05:53.289Z,2.47
2019-03-08T23:08:24.653Z,2.17
2019-03-08T23:10:55.148Z,2.67
2019-03-08T23:13:25.627Z,2.47
2019-03-08T23:15:55.959Z,1.77
2019-03-08T23:18:26.412Z,1.98
2019-03-08T23:20:57.062Z,2.75
2019-03-08T23:23:27.430Z,2.45
2019-03-08T23:25:58.128Z,2.40
2019-03-08T23:28:48.255Z,2.27
2019-03-08T23:31:23.699Z,2.47
2019-03-08T23:33:54.332Z,2.42
2019-03-08T23:36:25.183Z,2.35
2019-03-08T23:38:55.562Z,2.17
2019-03-08T23:41:26.156Z,2.75
2019-03-08T23:43:56.849Z,2.25
2019-03-08T23:46:27.181Z,3.00
2019-03-08T23:48:57.535Z,3.20
2019-03-08T23:51:27.899Z,2.75
2019-03-08T23:53:58.334Z,3.55
2019-03-08T23:56:30.243Z,4.05
2019-03-08T23:59:00.553Z,4.50
